sensor_id;sensor_type;location;lat;lon;timestamp;P1;P2;P0
55043;PMS5003;54902;50.420;18.854;2023-04-01T00:00:28;3;3;3
55043;PMS5003;54902;50.420;18.854;2023-04-01T00:00:59;3;3;3
55043;PMS5003;54902;50.420;18.854;2023-04-01T00:01:32;3;3;3
55043;PMS5003;54902;50.420;18.854;2023-04-01T00:02:03;1;1;1
55043;PMS5003;54902;50.420;18.854;2023-04-01T00:02:34;1;1;1
55043;PMS5003;54902;50.420;18.854;2023-04-01T00:03:06;1;1;1
55043;PMS5003;54902;50.420;18.854;2023-04-01T00:03:37;1;1;1
55043;PMS5003;54902;50.420;18.854;2023-04-01T00:04:08;1;1;1
55043;PMS5003;54902;50.420;18.854;2023-04-01T00:04:39;1;1;1
55043;PMS5003;54902;50.420;18.854;2023-04-01T00:05:10;1;1;1
55043;PMS5003;54902;50.420;18.854;2023-04-01T00:05:42;2;2;2
55043;PMS5003;54902;50.420;18.854;2023-04-01T00:06:13;2;2;2
55043;PMS5003;54902;50.420;18.854;2023-04-01T00:06:46;2;2;1
55043;PMS5003;54902;50.420;18.854;2023-04-01T00:07:17;2;2;1
55043;PMS5003;54902;50.420;18.854;2023-04-01T00:07:48;2;2;1
55043;PMS5003;54902;50.420;18.854;2023-04-01T00:08:20;2;2;1
55043;PMS5003;54902;50.420;18.854;2023-04-01T00:08:51;2;2;1
55043;PMS5003;54902;50.420;18.854;2023-04-01T00:09:23;2;2;1
55043;PMS5003;54902;50.420;18.854;2023-04-01T00:09:54;2;2;1
55043;PMS5003;54902;50.420;18.854;2023-04-01T00:10:25;2;2;1
55043;PMS5003;54902;50.420;18.854;2023-04-01T00:10:56;3;3;3
55043;PMS5003;54902;50.420;18.854;2023-04-01T00:11:27;3;3;3
55043;PMS5003;54902;50.420;18.854;2023-04-01T00:11:58;3;3;3
55043;PMS5003;54902;50.420;18.854;2023-04-01T00:12:29;3;3;3
55043;PMS5003;54902;50.420;18.854;2023-04-01T00:13:00;3;3;3
55043;PMS5003;54902;50.420;18.854;2023-04-01T00:13:31;3;3;3
55043;PMS5003;54902;50.420;18.854;2023-04-01T00:14:02;3;3;3
55043;PMS5003;54902;50.420;18.854;2023-04-01T00:14:33;3;3;3
55043;PMS5003;54902;50.420;18.854;2023-04-01T00:15:08;3;3;3
55043;PMS5003;54902;50.420;18.854;2023-04-01T00:15:41;3;3;3
55043;PMS5003;54902;50.420;18.854;2023-04-01T00:16:12;2;2;2
55043;PMS5003;54902;50.420;18.854;2023-04-01T00:16:44;2;2;2
55043;PMS5003;54902;50.420;18.854;2023-04-01T00:17:15;2;2;2
55043;PMS5003;54902;50.420;18.854;2023-04-01T00:17:46;2;2;2
55043;PMS5003;54902;50.420;18.854;2023-04-01T00:18:18;2;2;2
55043;PMS5003;54902;50.420;18.854;2023-04-01T00:18:49;2;2;2
55043;PMS5003;54902;50.420;18.854;2023-04-01T00:19:21;2;2;2
55043;PMS5003;54902;50.420;18.854;2023-04-01T00:19:54;2;2;2
55043;PMS5003;54902;50.420;18.854;2023-04-01T00:20:26;2;2;2
55043;PMS5003;54902;50.420;18.854;2023-04-01T00:20:57;2;2;2
55043;PMS5003;54902;50.420;18.854;2023-04-01T00:21:29;4;4;4
55043;PMS5003;54902;50.420;18.854;2023-04-01T00:22:00;4;4;4
55043;PMS5003;54902;50.420;18.854;2023-04-01T00:22:32;4;4;4
55043;PMS5003;54902;50.420;18.854;2023-04-01T00:23:04;2;2;2
55043;PMS5003;54902;50.420;18.854;2023-04-01T00:23:36;2;2;2
55043;PMS5003;54902;50.420;18.854;2023-04-01T00:24:07;2;2;2
55043;PMS5003;54902;50.420;18.854;2023-04-01T00:24:39;2;2;2
55043;PMS5003;54902;50.420;18.854;2023-04-01T00:25:10;2;2;2
55043;PMS5003;54902;50.420;18.854;2023-04-01T00:25:41;2;2;2
55043;PMS5003;54902;50.420;18.854;2023-04-01T00:26:13;2;2;2
55043;PMS5003;54902;50.420;18.854;2023-04-01T00:26:47;3;3;2
55043;PMS5003;54902;50.420;18.854;2023-04-01T00:27:19;3;3;2
55043;PMS5003;54902;50.420;18.854;2023-04-01T00:27:50;3;3;2
55043;PMS5003;54902;50.420;18.854;2023-04-01T00:28:21;3;3;2
55043;PMS5003;54902;50.420;18.854;2023-04-01T00:28:52;3;3;2
55043;PMS5003;54902;50.420;18.854;2023-04-01T00:29:23;3;3;2
55043;PMS5003;54902;50.420;18.854;2023-04-01T00:29:59;3;3;2
55043;PMS5003;54902;50.420;18.854;2023-04-01T00:30:31;3;3;2
55043;PMS5003;54902;50.420;18.854;2023-04-01T00:31:05;3;3;2
55043;PMS5003;54902;50.420;18.854;2023-04-01T00:31:37;3;3;2
55043;PMS5003;54902;50.420;18.854;2023-04-01T00:32:08;4;4;2
55043;PMS5003;54902;50.420;18.854;2023-04-01T00:32:40;4;4;2
55043;PMS5003;54902;50.420;18.854;2023-04-01T00:33:11;4;4;2
55043;PMS5003;54902;50.420;18.854;2023-04-01T00:33:42;4;4;2
55043;PMS5003;54902;50.420;18.854;2023-04-01T00:34:13;4;4;2
55043;PMS5003;54902;50.420;18.854;2023-04-01T00:34:44;4;4;2
55043;PMS5003;54902;50.420;18.854;2023-04-01T00:35:15;4;4;2
55043;PMS5003;54902;50.420;18.854;2023-04-01T00:35:47;4;4;2
55043;PMS5003;54902;50.420;18.854;2023-04-01T00:36:19;4;4;2
55043;PMS5003;54902;50.420;18.854;2023-04-01T00:36:52;3;3;1
55043;PMS5003;54902;50.420;18.854;2023-04-01T00:37:24;3;3;2
55043;PMS5003;54902;50.420;18.854;2023-04-01T00:37:55;3;3;2
55043;PMS5003;54902;50.420;18.854;2023-04-01T00:38:27;3;3;2
55043;PMS5003;54902;50.420;18.854;2023-04-01T00:38:58;3;3;2
55043;PMS5003;54902;50.420;18.854;2023-04-01T00:39:32;3;3;2
55043;PMS5003;54902;50.420;18.854;2023-04-01T00:40:05;3;3;2
55043;PMS5003;54902;50.420;18.854;2023-04-01T00:40:39;3;3;2
55043;PMS5003;54902;50.420;18.854;2023-04-01T00:41:12;3;3;2
55043;PMS5003;54902;50.420;18.854;2023-04-01T00:41:45;3;3;2
55043;PMS5003;54902;50.420;18.854;2023-04-01T00:42:17;3;3;2
55043;PMS5003;54902;50.420;18.854;2023-04-01T00:42:48;7;7;4
55043;PMS5003;54902;50.420;18.854;2023-04-01T00:43:19;7;7;4
55043;PMS5003;54902;50.420;18.854;2023-04-01T00:43:52;7;7;4
55043;PMS5003;54902;50.420;18.854;2023-04-01T00:44:24;7;7;4
55043;PMS5003;54902;50.420;18.854;2023-04-01T00:44:56;7;7;4
55043;PMS5003;54902;50.420;18.854;2023-04-01T00:45:29;7;7;4
55043;PMS5003;54902;50.420;18.854;2023-04-01T00:46:06;7;7;4
55043;PMS5003;54902;50.420;18.854;2023-04-01T00:46:37;7;7;4
55043;PMS5003;54902;50.420;18.854;2023-04-01T00:47:08;7;7;4
55043;PMS5003;54902;50.420;18.854;2023-04-01T00:47:40;7;7;4
55043;PMS5003;54902;50.420;18.854;2023-04-01T00:48:21;7;7;4
55043;PMS5003;54902;50.420;18.854;2023-04-01T00:48:49;7;7;4
55043;PMS5003;54902;50.420;18.854;2023-04-01T00:49:28;7;7;4
55043;PMS5003;54902;50.420;18.854;2023-04-01T00:50:04;7;7;4
55043;PMS5003;54902;50.420;18.854;2023-04-01T00:50:35;7;7;4
55043;PMS5003;54902;50.420;18.854;2023-04-01T00:51:09;7;7;4
55043;PMS5003;54902;50.420;18.854;2023-04-01T00:51:45;7;7;4
55043;PMS5003;54902;50.420;18.854;2023-04-01T00:52:21;7;7;4
55043;PMS5003;54902;50.420;18.854;2023-04-01T00:52:56;7;7;4
55043;PMS5003;54902;50.420;18.854;2023-04-01T00:53:29;7;7;4
55043;PMS5003;54902;50.420;18.854;2023-04-01T00:54:02;7;7;4
55043;PMS5003;54902;50.420;18.854;2023-04-01T00:54:34;7;7;4
55043;PMS5003;54902;50.420;18.854;2023-04-01T00:55:07;7;7;4
55043;PMS5003;54902;50.420;18.854;2023-04-01T00:55:46;7;7;4
55043;PMS5003;54902;50.420;18.854;2023-04-01T00:56:30;7;7;4
55043;PMS5003;54902;50.420;18.854;2023-04-01T00:57:07;7;7;4
55043;PMS5003;54902;50.420;18.854;2023-04-01T00:57:43;7;7;4
55043;PMS5003;54902;50.420;18.854;2023-04-01T00:58:16;7;7;4
55043;PMS5003;54902;50.420;18.854;2023-04-01T00:58:54;7;7;4
55043;PMS5003;54902;50.420;18.854;2023-04-01T00:59:34;7;7;4
55043;PMS5003;54902;50.420;18.854;2023-04-01T01:00:10;7;7;4
55043;PMS5003;54902;50.420;18.854;2023-04-01T01:00:45;7;7;4
55043;PMS5003;54902;50.420;18.854;2023-04-01T01:01:20;7;7;4
55043;PMS5003;54902;50.420;18.854;2023-04-01T01:01:52;7;7;4
55043;PMS5003;54902;50.420;18.854;2023-04-01T01:02:23;7;7;4
55043;PMS5003;54902;50.420;18.854;2023-04-01T01:02:54;7;7;4
55043;PMS5003;54902;50.420;18.854;2023-04-01T01:03:25;7;7;4
55043;PMS5003;54902;50.420;18.854;2023-04-01T01:03:56;7;7;4
55043;PMS5003;54902;50.420;18.854;2023-04-01T01:04:28;7;7;4
55043;PMS5003;54902;50.420;18.854;2023-04-01T01:05:01;7;7;4
55043;PMS5003;54902;50.420;18.854;2023-04-01T01:08:31;7;7;4
55043;PMS5003;54902;50.420;18.854;2023-04-01T01:10:34;4;4;3
55043;PMS5003;54902;50.420;18.854;2023-04-01T01:11:09;4;4;3
55043;PMS5003;54902;50.420;18.854;2023-04-01T01:11:44;4;4;3
55043;PMS5003;54902;50.420;18.854;2023-04-01T01:15:22;4;4;3
55043;PMS5003;54902;50.420;18.854;2023-04-01T01:16:04;4;4;3
55043;PMS5003;54902;50.420;18.854;2023-04-01T01:16:43;4;4;3
55043;PMS5003;54902;50.420;18.854;2023-04-01T01:18:48;4;4;3
55043;PMS5003;54902;50.420;18.854;2023-04-01T01:25:17;4;4;3
55043;PMS5003;54902;50.420;18.854;2023-04-01T01:27:24;4;4;3
55043;PMS5003;54902;50.420;18.854;2023-04-01T01:33:08;2;2;2
55043;PMS5003;54902;50.420;18.854;2023-04-01T01:33:50;4;4;3
55043;PMS5003;54902;50.420;18.854;2023-04-01T01:34:30;4;4;3
55043;PMS5003;54902;50.420;18.854;2023-04-01T01:35:16;4;4;3
55043;PMS5003;54902;50.420;18.854;2023-04-01T01:35:54;4;4;3
55043;PMS5003;54902;50.420;18.854;2023-04-01T01:36:31;4;4;3
55043;PMS5003;54902;50.420;18.854;2023-04-01T01:37:10;4;4;3
55043;PMS5003;54902;50.420;18.854;2023-04-01T01:37:46;4;4;3
55043;PMS5003;54902;50.420;18.854;2023-04-01T01:38:24;4;4;3
55043;PMS5003;54902;50.420;18.854;2023-04-01T01:39:01;4;4;3
55043;PMS5003;54902;50.420;18.854;2023-04-01T01:39:36;4;4;3
55043;PMS5003;54902;50.420;18.854;2023-04-01T01:40:09;5;5;4
55043;PMS5003;54902;50.420;18.854;2023-04-01T01:40:43;5;5;4
55043;PMS5003;54902;50.420;18.854;2023-04-01T01:41:18;5;5;4
55043;PMS5003;54902;50.420;18.854;2023-04-01T01:41:52;5;5;4
55043;PMS5003;54902;50.420;18.854;2023-04-01T01:42:26;3;3;3
55043;PMS5003;54902;50.420;18.854;2023-04-01T01:43:05;3;3;3
55043;PMS5003;54902;50.420;18.854;2023-04-01T01:43:40;3;3;3
55043;PMS5003;54902;50.420;18.854;2023-04-01T01:44:15;3;3;3
55043;PMS5003;54902;50.420;18.854;2023-04-01T01:44:48;3;3;3
55043;PMS5003;54902;50.420;18.854;2023-04-01T01:45:21;3;3;3
55043;PMS5003;54902;50.420;18.854;2023-04-01T01:45:57;6;6;4
55043;PMS5003;54902;50.420;18.854;2023-04-01T01:46:32;6;6;4
55043;PMS5003;54902;50.420;18.854;2023-04-01T01:47:03;6;6;4
55043;PMS5003;54902;50.420;18.854;2023-04-01T01:47:36;6;6;4
55043;PMS5003;54902;50.420;18.854;2023-04-01T01:48:09;6;6;4
55043;PMS5003;54902;50.420;18.854;2023-04-01T01:48:41;6;6;4
55043;PMS5003;54902;50.420;18.854;2023-04-01T01:49:15;6;6;4
55043;PMS5003;54902;50.420;18.854;2023-04-01T01:49:49;6;6;4
55043;PMS5003;54902;50.420;18.854;2023-04-01T01:50:21;6;6;4
55043;PMS5003;54902;50.420;18.854;2023-04-01T01:50:55;6;6;4
55043;PMS5003;54902;50.420;18.854;2023-04-01T01:51:26;7;7;5
55043;PMS5003;54902;50.420;18.854;2023-04-01T01:51:58;7;7;5
55043;PMS5003;54902;50.420;18.854;2023-04-01T01:52:30;7;7;5
55043;PMS5003;54902;50.420;18.854;2023-04-01T01:53:02;7;7;5
55043;PMS5003;54902;50.420;18.854;2023-04-01T01:53:37;7;7;5
55043;PMS5003;54902;50.420;18.854;2023-04-01T01:54:11;7;7;5
55043;PMS5003;54902;50.420;18.854;2023-04-01T01:55:24;7;7;5
55043;PMS5003;54902;50.420;18.854;2023-04-01T01:56:02;7;7;5
55043;PMS5003;54902;50.420;18.854;2023-04-01T01:56:34;7;7;5
55043;PMS5003;54902;50.420;18.854;2023-04-01T01:57:07;7;7;5
55043;PMS5003;54902;50.420;18.854;2023-04-01T01:57:40;7;7;5
55043;PMS5003;54902;50.420;18.854;2023-04-01T01:58:18;7;7;5
55043;PMS5003;54902;50.420;18.854;2023-04-01T01:58:54;7;7;5
55043;PMS5003;54902;50.420;18.854;2023-04-01T01:59:29;7;7;5
55043;PMS5003;54902;50.420;18.854;2023-04-01T02:00:06;7;7;5
55043;PMS5003;54902;50.420;18.854;2023-04-01T02:00:44;7;7;5
55043;PMS5003;54902;50.420;18.854;2023-04-01T02:01:24;7;7;5
55043;PMS5003;54902;50.420;18.854;2023-04-01T02:01:58;6;6;4
55043;PMS5003;54902;50.420;18.854;2023-04-01T02:02:31;6;6;4
55043;PMS5003;54902;50.420;18.854;2023-04-01T02:03:02;3;3;3
55043;PMS5003;54902;50.420;18.854;2023-04-01T02:03:36;3;3;3
55043;PMS5003;54902;50.420;18.854;2023-04-01T02:04:09;3;3;3
55043;PMS5003;54902;50.420;18.854;2023-04-01T02:04:43;3;3;3
55043;PMS5003;54902;50.420;18.854;2023-04-01T02:05:20;3;3;3
55043;PMS5003;54902;50.420;18.854;2023-04-01T02:05:56;3;3;3
55043;PMS5003;54902;50.420;18.854;2023-04-01T02:06:30;3;3;3
55043;PMS5003;54902;50.420;18.854;2023-04-01T02:07:08;3;3;3
55043;PMS5003;54902;50.420;18.854;2023-04-01T02:07:47;6;6;4
55043;PMS5003;54902;50.420;18.854;2023-04-01T02:08:26;6;6;4
55043;PMS5003;54902;50.420;18.854;2023-04-01T02:09:06;5;5;3
55043;PMS5003;54902;50.420;18.854;2023-04-01T02:09:41;5;5;3
55043;PMS5003;54902;50.420;18.854;2023-04-01T02:10:13;5;5;3
55043;PMS5003;54902;50.420;18.854;2023-04-01T02:10:48;5;5;3
55043;PMS5003;54902;50.420;18.854;2023-04-01T02:11:34;5;5;3
55043;PMS5003;54902;50.420;18.854;2023-04-01T02:12:10;5;5;3
55043;PMS5003;54902;50.420;18.854;2023-04-01T02:12:46;5;5;3
55043;PMS5003;54902;50.420;18.854;2023-04-01T02:13:21;5;5;3
55043;PMS5003;54902;50.420;18.854;2023-04-01T02:14:10;5;5;3
55043;PMS5003;54902;50.420;18.854;2023-04-01T02:15:25;7;7;5
55043;PMS5003;54902;50.420;18.854;2023-04-01T02:16:10;7;7;5
55043;PMS5003;54902;50.420;18.854;2023-04-01T02:16:59;7;7;5
55043;PMS5003;54902;50.420;18.854;2023-04-01T02:17:25;7;7;5
55043;PMS5003;54902;50.420;18.854;2023-04-01T02:18:00;7;7;5
55043;PMS5003;54902;50.420;18.854;2023-04-01T02:18:33;7;7;5
55043;PMS5003;54902;50.420;18.854;2023-04-01T02:19:08;7;7;5
55043;PMS5003;54902;50.420;18.854;2023-04-01T02:19:47;7;7;5
55043;PMS5003;54902;50.420;18.854;2023-04-01T02:20:22;7;7;5
55043;PMS5003;54902;50.420;18.854;2023-04-01T02:20:54;7;7;5
55043;PMS5003;54902;50.420;18.854;2023-04-01T02:21:30;7;7;5
55043;PMS5003;54902;50.420;18.854;2023-04-01T02:22:03;7;7;5
55043;PMS5003;54902;50.420;18.854;2023-04-01T02:22:43;7;7;5
55043;PMS5003;54902;50.420;18.854;2023-04-01T02:23:18;7;7;5
55043;PMS5003;54902;50.420;18.854;2023-04-01T02:23:50;7;7;5
55043;PMS5003;54902;50.420;18.854;2023-04-01T02:24:25;7;7;5
55043;PMS5003;54902;50.420;18.854;2023-04-01T02:25:01;5;5;3
55043;PMS5003;54902;50.420;18.854;2023-04-01T02:25:38;5;5;3
55043;PMS5003;54902;50.420;18.854;2023-04-01T02:26:11;5;5;3
55043;PMS5003;54902;50.420;18.854;2023-04-01T02:26:44;5;5;3
55043;PMS5003;54902;50.420;18.854;2023-04-01T02:27:16;7;6;4
55043;PMS5003;54902;50.420;18.854;2023-04-01T02:27:47;3;2;2
55043;PMS5003;54902;50.420;18.854;2023-04-01T02:28:18;3;2;2
55043;PMS5003;54902;50.420;18.854;2023-04-01T02:28:51;3;2;2
55043;PMS5003;54902;50.420;18.854;2023-04-01T02:29:25;3;2;2
55043;PMS5003;54902;50.420;18.854;2023-04-01T02:29:56;3;2;2
55043;PMS5003;54902;50.420;18.854;2023-04-01T02:30:29;3;2;2
55043;PMS5003;54902;50.420;18.854;2023-04-01T02:31:02;3;2;2
55043;PMS5003;54902;50.420;18.854;2023-04-01T02:31:34;3;2;2
55043;PMS5003;54902;50.420;18.854;2023-04-01T02:32:05;3;2;2
55043;PMS5003;54902;50.420;18.854;2023-04-01T02:32:37;5;5;4
55043;PMS5003;54902;50.420;18.854;2023-04-01T02:33:10;5;5;4
55043;PMS5003;54902;50.420;18.854;2023-04-01T02:33:41;5;5;4
55043;PMS5003;54902;50.420;18.854;2023-04-01T02:34:12;5;5;4
55043;PMS5003;54902;50.420;18.854;2023-04-01T02:34:45;5;5;4
55043;PMS5003;54902;50.420;18.854;2023-04-01T02:35:17;5;5;4
55043;PMS5003;54902;50.420;18.854;2023-04-01T02:35:48;5;5;4
55043;PMS5003;54902;50.420;18.854;2023-04-01T02:36:20;5;5;4
55043;PMS5003;54902;50.420;18.854;2023-04-01T02:36:51;5;5;4
55043;PMS5003;54902;50.420;18.854;2023-04-01T02:37:24;5;5;4
55043;PMS5003;54902;50.420;18.854;2023-04-01T02:37:55;8;8;7
55043;PMS5003;54902;50.420;18.854;2023-04-01T02:38:27;8;8;7
55043;PMS5003;54902;50.420;18.854;2023-04-01T02:38:58;8;8;7
55043;PMS5003;54902;50.420;18.854;2023-04-01T02:39:34;8;8;7
55043;PMS5003;54902;50.420;18.854;2023-04-01T02:40:06;8;8;7
55043;PMS5003;54902;50.420;18.854;2023-04-01T02:41:19;8;8;7
55043;PMS5003;54902;50.420;18.854;2023-04-01T02:41:51;7;7;6
55043;PMS5003;54902;50.420;18.854;2023-04-01T02:42:22;7;7;6
55043;PMS5003;54902;50.420;18.854;2023-04-01T02:42:53;7;7;6
55043;PMS5003;54902;50.420;18.854;2023-04-01T02:43:24;6;6;5
55043;PMS5003;54902;50.420;18.854;2023-04-01T02:43:55;6;6;5
55043;PMS5003;54902;50.420;18.854;2023-04-01T02:44:29;6;6;5
55043;PMS5003;54902;50.420;18.854;2023-04-01T02:45:00;6;6;5
55043;PMS5003;54902;50.420;18.854;2023-04-01T02:45:31;6;6;5
55043;PMS5003;54902;50.420;18.854;2023-04-01T02:46:02;6;6;5
55043;PMS5003;54902;50.420;18.854;2023-04-01T02:46:34;6;6;5
55043;PMS5003;54902;50.420;18.854;2023-04-01T02:47:05;6;6;5
55043;PMS5003;54902;50.420;18.854;2023-04-01T02:47:36;6;6;5
55043;PMS5003;54902;50.420;18.854;2023-04-01T02:48:08;6;6;5
55043;PMS5003;54902;50.420;18.854;2023-04-01T02:48:39;8;8;7
55043;PMS5003;54902;50.420;18.854;2023-04-01T02:49:10;8;8;7
55043;PMS5003;54902;50.420;18.854;2023-04-01T02:49:41;8;8;7
55043;PMS5003;54902;50.420;18.854;2023-04-01T02:50:12;8;8;7
55043;PMS5003;54902;50.420;18.854;2023-04-01T02:50:43;8;8;7
55043;PMS5003;54902;50.420;18.854;2023-04-01T02:51:14;8;8;7
55043;PMS5003;54902;50.420;18.854;2023-04-01T02:51:45;8;8;7
55043;PMS5003;54902;50.420;18.854;2023-04-01T02:52:16;8;8;7
55043;PMS5003;54902;50.420;18.854;2023-04-01T02:52:47;8;8;7
55043;PMS5003;54902;50.420;18.854;2023-04-01T02:53:18;8;8;7
55043;PMS5003;54902;50.420;18.854;2023-04-01T02:53:49;8;8;7
55043;PMS5003;54902;50.420;18.854;2023-04-01T02:54:20;8;8;7
55043;PMS5003;54902;50.420;18.854;2023-04-01T02:54:51;8;8;7
55043;PMS5003;54902;50.420;18.854;2023-04-01T02:55:22;8;8;7
55043;PMS5003;54902;50.420;18.854;2023-04-01T02:55:53;8;8;7
55043;PMS5003;54902;50.420;18.854;2023-04-01T02:56:24;8;8;7
55043;PMS5003;54902;50.420;18.854;2023-04-01T02:56:56;8;8;7
55043;PMS5003;54902;50.420;18.854;2023-04-01T02:57:27;8;8;7
55043;PMS5003;54902;50.420;18.854;2023-04-01T02:57:59;8;8;7
55043;PMS5003;54902;50.420;18.854;2023-04-01T02:58:30;8;8;7
55043;PMS5003;54902;50.420;18.854;2023-04-01T02:59:01;8;8;7
55043;PMS5003;54902;50.420;18.854;2023-04-01T02:59:32;8;8;7
55043;PMS5003;54902;50.420;18.854;2023-04-01T03:00:03;4;4;3
55043;PMS5003;54902;50.420;18.854;2023-04-01T03:00:41;4;4;3
55043;PMS5003;54902;50.420;18.854;2023-04-01T03:01:12;4;4;3
55043;PMS5003;54902;50.420;18.854;2023-04-01T03:01:43;4;4;3
55043;PMS5003;54902;50.420;18.854;2023-04-01T03:02:14;4;4;3
55043;PMS5003;54902;50.420;18.854;2023-04-01T03:02:46;4;4;3
55043;PMS5003;54902;50.420;18.854;2023-04-01T03:03:17;4;4;3
55043;PMS5003;54902;50.420;18.854;2023-04-01T03:03:48;6;6;4
55043;PMS5003;54902;50.420;18.854;2023-04-01T03:04:19;6;6;4
55043;PMS5003;54902;50.420;18.854;2023-04-01T03:04:50;6;6;4
55043;PMS5003;54902;50.420;18.854;2023-04-01T03:05:21;6;6;4
55043;PMS5003;54902;50.420;18.854;2023-04-01T03:05:52;6;6;4
55043;PMS5003;54902;50.420;18.854;2023-04-01T03:06:28;6;6;4
55043;PMS5003;54902;50.420;18.854;2023-04-01T03:06:59;6;6;4
55043;PMS5003;54902;50.420;18.854;2023-04-01T03:07:30;6;6;4
55043;PMS5003;54902;50.420;18.854;2023-04-01T03:08:02;6;6;4
55043;PMS5003;54902;50.420;18.854;2023-04-01T03:08:33;6;6;4
55043;PMS5003;54902;50.420;18.854;2023-04-01T03:09:04;6;6;4
55043;PMS5003;54902;50.420;18.854;2023-04-01T03:09:36;10;10;7
55043;PMS5003;54902;50.420;18.854;2023-04-01T03:10:07;4;4;3
55043;PMS5003;54902;50.420;18.854;2023-04-01T03:10:39;4;4;3
55043;PMS5003;54902;50.420;18.854;2023-04-01T03:11:11;4;4;3
55043;PMS5003;54902;50.420;18.854;2023-04-01T03:11:42;4;4;3
55043;PMS5003;54902;50.420;18.854;2023-04-01T03:12:14;4;4;3
55043;PMS5003;54902;50.420;18.854;2023-04-01T03:12:45;4;4;3
55043;PMS5003;54902;50.420;18.854;2023-04-01T03:13:16;4;4;3
55043;PMS5003;54902;50.420;18.854;2023-04-01T03:13:47;4;4;3
55043;PMS5003;54902;50.420;18.854;2023-04-01T03:14:19;4;4;3
55043;PMS5003;54902;50.420;18.854;2023-04-01T03:14:50;9;9;7
55043;PMS5003;54902;50.420;18.854;2023-04-01T03:15:21;9;9;7
55043;PMS5003;54902;50.420;18.854;2023-04-01T03:15:53;9;9;7
55043;PMS5003;54902;50.420;18.854;2023-04-01T03:16:24;4;4;3
55043;PMS5003;54902;50.420;18.854;2023-04-01T03:16:55;4;4;3
55043;PMS5003;54902;50.420;18.854;2023-04-01T03:17:26;4;4;3
55043;PMS5003;54902;50.420;18.854;2023-04-01T03:17:57;4;4;3
55043;PMS5003;54902;50.420;18.854;2023-04-01T03:18:28;4;4;3
55043;PMS5003;54902;50.420;18.854;2023-04-01T03:18:59;4;4;3
55043;PMS5003;54902;50.420;18.854;2023-04-01T03:19:32;4;4;3
55043;PMS5003;54902;50.420;18.854;2023-04-01T03:20:03;6;6;4
55043;PMS5003;54902;50.420;18.854;2023-04-01T03:20:35;6;6;4
55043;PMS5003;54902;50.420;18.854;2023-04-01T03:21:47;6;6;4
55043;PMS5003;54902;50.420;18.854;2023-04-01T03:22:18;6;6;4
55043;PMS5003;54902;50.420;18.854;2023-04-01T03:22:51;6;6;4
55043;PMS5003;54902;50.420;18.854;2023-04-01T03:23:22;6;6;4
55043;PMS5003;54902;50.420;18.854;2023-04-01T03:23:54;6;6;4
55043;PMS5003;54902;50.420;18.854;2023-04-01T03:24:25;6;6;4
55043;PMS5003;54902;50.420;18.854;2023-04-01T03:24:56;6;6;4
55043;PMS5003;54902;50.420;18.854;2023-04-01T03:25:27;7;7;5
55043;PMS5003;54902;50.420;18.854;2023-04-01T03:26:00;7;7;5
55043;PMS5003;54902;50.420;18.854;2023-04-01T03:26:31;7;7;5
55043;PMS5003;54902;50.420;18.854;2023-04-01T03:27:02;7;7;5
55043;PMS5003;54902;50.420;18.854;2023-04-01T03:27:34;7;7;5
55043;PMS5003;54902;50.420;18.854;2023-04-01T03:28:06;7;7;5
55043;PMS5003;54902;50.420;18.854;2023-04-01T03:28:36;7;7;5
55043;PMS5003;54902;50.420;18.854;2023-04-01T03:29:07;7;7;5
55043;PMS5003;54902;50.420;18.854;2023-04-01T03:29:38;7;7;5
55043;PMS5003;54902;50.420;18.854;2023-04-01T03:30:09;7;7;5
55043;PMS5003;54902;50.420;18.854;2023-04-01T03:30:40;7;7;5
55043;PMS5003;54902;50.420;18.854;2023-04-01T03:31:11;7;7;5
55043;PMS5003;54902;50.420;18.854;2023-04-01T03:31:43;7;7;5
55043;PMS5003;54902;50.420;18.854;2023-04-01T03:32:14;7;7;5
55043;PMS5003;54902;50.420;18.854;2023-04-01T03:32:45;7;7;5
55043;PMS5003;54902;50.420;18.854;2023-04-01T03:33:16;5;5;3
55043;PMS5003;54902;50.420;18.854;2023-04-01T03:33:47;5;5;3
55043;PMS5003;54902;50.420;18.854;2023-04-01T03:34:18;5;5;3
55043;PMS5003;54902;50.420;18.854;2023-04-01T03:34:49;5;5;3
55043;PMS5003;54902;50.420;18.854;2023-04-01T03:35:20;5;5;3
55043;PMS5003;54902;50.420;18.854;2023-04-01T03:35:51;6;6;4
55043;PMS5003;54902;50.420;18.854;2023-04-01T03:36:22;6;6;4
55043;PMS5003;54902;50.420;18.854;2023-04-01T03:36:53;6;6;4
55043;PMS5003;54902;50.420;18.854;2023-04-01T03:37:25;6;6;4
55043;PMS5003;54902;50.420;18.854;2023-04-01T03:37:55;6;6;4
55043;PMS5003;54902;50.420;18.854;2023-04-01T03:38:27;6;6;4
55043;PMS5003;54902;50.420;18.854;2023-04-01T03:38:58;6;6;4
55043;PMS5003;54902;50.420;18.854;2023-04-01T03:39:30;6;6;4
55043;PMS5003;54902;50.420;18.854;2023-04-01T03:40:01;6;6;4
55043;PMS5003;54902;50.420;18.854;2023-04-01T03:40:32;6;6;4
55043;PMS5003;54902;50.420;18.854;2023-04-01T03:41:11;8;8;5
55043;PMS5003;54902;50.420;18.854;2023-04-01T03:41:43;8;8;5
55043;PMS5003;54902;50.420;18.854;2023-04-01T03:42:15;8;8;5
55043;PMS5003;54902;50.420;18.854;2023-04-01T03:42:46;8;8;5
55043;PMS5003;54902;50.420;18.854;2023-04-01T03:43:17;8;8;5
55043;PMS5003;54902;50.420;18.854;2023-04-01T03:43:48;8;8;5
55043;PMS5003;54902;50.420;18.854;2023-04-01T03:44:19;8;8;5
55043;PMS5003;54902;50.420;18.854;2023-04-01T03:44:50;8;8;5
55043;PMS5003;54902;50.420;18.854;2023-04-01T03:45:21;8;8;5
55043;PMS5003;54902;50.420;18.854;2023-04-01T03:45:52;8;8;5
55043;PMS5003;54902;50.420;18.854;2023-04-01T03:46:24;8;8;5
55043;PMS5003;54902;50.420;18.854;2023-04-01T03:46:55;8;8;5
55043;PMS5003;54902;50.420;18.854;2023-04-01T03:47:26;8;8;5
55043;PMS5003;54902;50.420;18.854;2023-04-01T03:47:57;8;8;5
55043;PMS5003;54902;50.420;18.854;2023-04-01T03:48:28;8;8;5
55043;PMS5003;54902;50.420;18.854;2023-04-01T03:48:59;8;8;5
55043;PMS5003;54902;50.420;18.854;2023-04-01T03:49:30;8;8;5
55043;PMS5003;54902;50.420;18.854;2023-04-01T03:50:02;8;8;5
55043;PMS5003;54902;50.420;18.854;2023-04-01T03:50:34;8;8;5
55043;PMS5003;54902;50.420;18.854;2023-04-01T03:51:08;8;8;5
55043;PMS5003;54902;50.420;18.854;2023-04-01T03:51:40;5;4;4
55043;PMS5003;54902;50.420;18.854;2023-04-01T03:52:13;5;4;4
55043;PMS5003;54902;50.420;18.854;2023-04-01T03:52:43;5;4;4
55043;PMS5003;54902;50.420;18.854;2023-04-01T03:53:14;5;4;4
55043;PMS5003;54902;50.420;18.854;2023-04-01T03:53:46;5;4;4
55043;PMS5003;54902;50.420;18.854;2023-04-01T03:54:17;5;4;4
55043;PMS5003;54902;50.420;18.854;2023-04-01T03:54:50;5;4;4
55043;PMS5003;54902;50.420;18.854;2023-04-01T03:55:21;5;4;4
55043;PMS5003;54902;50.420;18.854;2023-04-01T03:55:52;5;4;4
55043;PMS5003;54902;50.420;18.854;2023-04-01T03:56:23;5;4;4
55043;PMS5003;54902;50.420;18.854;2023-04-01T03:56:55;5;5;3
55043;PMS5003;54902;50.420;18.854;2023-04-01T03:57:28;5;5;3
55043;PMS5003;54902;50.420;18.854;2023-04-01T03:58:01;5;5;3
55043;PMS5003;54902;50.420;18.854;2023-04-01T03:58:33;5;5;3
55043;PMS5003;54902;50.420;18.854;2023-04-01T03:59:06;5;5;3
55043;PMS5003;54902;50.420;18.854;2023-04-01T03:59:38;5;5;3
55043;PMS5003;54902;50.420;18.854;2023-04-01T04:00:09;5;5;3
55043;PMS5003;54902;50.420;18.854;2023-04-01T04:00:40;5;5;3
55043;PMS5003;54902;50.420;18.854;2023-04-01T04:01:51;5;5;3
55043;PMS5003;54902;50.420;18.854;2023-04-01T04:02:22;8;8;5
55043;PMS5003;54902;50.420;18.854;2023-04-01T04:02:52;8;8;5
55043;PMS5003;54902;50.420;18.854;2023-04-01T04:03:25;8;8;5